Time;durP1;ratioP1;P1;durP2;ratioP2;P2;SDS_P1;SDS_P2;PMS_P1;PMS_P2;Temp;Humidity;BMP_temperature;BMP_pressure;BME280_temperature;BME280_humidity;BME280_pressure;Samples;Min_cycle;Max_cycle;Signal;HPM_P1;HPM_P2
2022/04/21 00:01:31;;;;;;;3.57;2.60;;;;;9.50;100900.00;;;;5026316;28;20708;-69
2022/04/21 00:04:18;;;;;;;5.00;2.90;;;;;9.60;100902.00;;;;5026503;28;20232;-68
2022/04/21 00:07:05;;;;;;;4.67;3.50;;;;;9.60;100903.00;;;;5028332;28;20397;-68
2022/04/21 00:09:52;;;;;;;7.77;2.70;;;;;9.40;100897.00;;;;5030166;28;20235;-68
2022/04/21 00:12:38;;;;;;;4.97;2.77;;;;;9.20;100892.00;;;;5045694;28;20234;-68
2022/04/21 00:15:25;;;;;;;4.13;2.70;;;;;9.30;100888.00;;;;5037343;28;20235;-68
2022/04/21 00:18:11;;;;;;;3.70;2.57;;;;;9.20;100896.00;;;;5038551;28;20406;-68
2022/04/21 00:21:01;;;;;;;2.93;2.23;;;;;9.20;100877.00;;;;5027781;28;20235;-68
2022/04/21 00:23:46;;;;;;;4.27;2.77;;;;;9.20;100885.00;;;;5027995;28;20234;-68
2022/04/21 00:26:33;;;;;;;4.33;2.57;;;;;9.20;100873.00;;;;5026980;28;20235;-69
2022/04/21 00:29:19;;;;;;;3.07;2.50;;;;;9.10;100873.00;;;;5045670;28;20229;-69
2022/04/21 00:32:05;;;;;;;3.07;2.60;;;;;9.10;100874.00;;;;5035126;28;20242;-69
2022/04/21 00:34:52;;;;;;;3.70;2.57;;;;;9.10;100881.00;;;;5044711;28;20246;-69
2022/04/21 00:37:46;;;;;;;3.30;2.50;;;;;8.90;100877.00;;;;5023221;28;20234;-68
2022/04/21 00:40:32;;;;;;;3.87;2.70;;;;;8.80;100872.00;;;;5015394;28;20889;-68
2022/04/21 00:43:21;;;;;;;3.10;2.23;;;;;8.80;100876.00;;;;5033924;28;20715;-67
2022/04/21 00:46:15;;;;;;;4.53;2.60;;;;;8.90;100871.00;;;;5055506;28;20233;-68
2022/04/21 00:49:01;;;;;;;6.63;2.80;;;;;8.70;100865.00;;;;5051213;28;20232;-69
2022/04/21 00:51:48;;;;;;;3.50;2.40;;;;;8.60;100879.00;;;;5046700;28;20233;-70
2022/04/21 00:54:35;;;;;;;6.10;2.50;;;;;8.70;100870.00;;;;5043177;28;20283;-69
2022/04/21 00:57:22;;;;;;;3.27;2.67;;;;;8.90;100863.00;;;;5045337;28;20310;-67
2022/04/21 01:00:10;;;;;;;3.97;2.80;;;;;8.80;100870.00;;;;5048159;28;20280;-70
2022/04/21 01:02:55;;;;;;;5.43;2.67;;;;;8.80;100874.00;;;;5049026;28;20762;-69
2022/04/21 01:05:41;;;;;;;5.03;2.53;;;;;8.90;100864.00;;;;5049871;28;20752;-68
2022/04/21 01:08:28;;;;;;;3.87;2.97;;;;;8.90;100867.00;;;;5034542;28;20635;-69
2022/04/21 01:11:16;;;;;;;4.27;2.93;;;;;8.70;100879.00;;;;5030288;28;20231;-69
2022/04/21 01:14:03;;;;;;;3.80;2.53;;;;;8.80;100867.00;;;;5027305;28;20257;-71
2022/04/21 01:16:49;;;;;;;4.70;2.93;;;;;8.70;100858.00;;;;5030498;28;20226;-69
2022/04/21 01:19:36;;;;;;;3.80;3.10;;;;;8.80;100877.00;;;;5033649;28;20799;-65
2022/04/21 01:22:23;;;;;;;3.63;2.90;;;;;8.70;100855.00;;;;5032852;28;20229;-69
2022/04/21 01:25:10;;;;;;;5.40;2.90;;;;;8.80;100867.00;;;;5042300;28;20234;-68
2022/04/21 01:27:59;;;;;;;2.97;2.50;;;;;8.80;100862.00;;;;5037917;28;20770;-68
2022/04/21 01:30:45;;;;;;;3.80;2.77;;;;;8.70;100852.00;;;;5024430;28;20231;-70
2022/04/21 01:33:31;;;;;;;4.07;3.23;;;;;8.70;100854.00;;;;5031005;28;20267;-69
2022/04/21 01:36:18;;;;;;;5.00;3.10;;;;;8.80;100851.00;;;;5036258;28;20256;-69
2022/04/21 01:42:14;;;;;;;5.50;3.00;;;;;8.60;100852.00;;;;5038996;28;20224;-69
2022/04/21 01:45:00;;;;;;;3.33;2.47;;;;;8.60;100839.00;;;;5024660;28;20306;-68
2022/04/21 01:47:47;;;;;;;3.73;2.70;;;;;8.50;100844.00;;;;5017615;28;20735;-68
2022/04/21 01:50:34;;;;;;;4.47;2.80;;;;;8.60;100838.00;;;;5027227;28;20623;-70
2022/04/21 01:53:20;;;;;;;8.07;3.37;;;;;8.50;100836.00;;;;5032685;28;20274;-69
2022/04/21 01:56:08;;;;;;;4.57;3.07;;;;;8.70;100834.00;;;;5036197;28;20242;-68
2022/04/21 01:58:55;;;;;;;4.73;3.10;;;;;8.70;100825.00;;;;5034287;28;20231;-70
2022/04/21 02:01:41;;;;;;;4.13;3.07;;;;;8.70;100822.00;;;;5046793;28;20240;-68
2022/04/21 02:04:27;;;;;;;3.13;2.60;;;;;8.60;100828.00;;;;5038550;28;20235;-68
2022/04/21 02:07:15;;;;;;;6.07;3.30;;;;;8.60;100824.00;;;;5030893;28;20238;-69
2022/04/21 02:10:01;;;;;;;6.10;2.80;;;;;8.50;100825.00;;;;5028184;28;20229;-68
2022/04/21 02:12:49;;;;;;;3.97;2.63;;;;;8.60;100826.00;;;;5039223;28;20756;-69
2022/04/21 02:15:35;;;;;;;3.37;2.63;;;;;8.40;100826.00;;;;5041666;28;20243;-68
2022/04/21 02:18:22;;;;;;;3.33;2.57;;;;;8.20;100823.00;;;;5032817;28;20234;-69
2022/04/21 02:21:08;;;;;;;3.67;2.70;;;;;8.10;100815.00;;;;5028526;28;20233;-69
2022/04/21 02:23:54;;;;;;;4.57;2.97;;;;;8.10;100815.00;;;;5039336;28;20238;-69
2022/04/21 02:26:40;;;;;;;2.77;2.43;;;;;8.00;100813.00;;;;5041885;28;20301;-68
2022/04/21 02:29:28;;;;;;;4.00;2.70;;;;;8.00;100823.00;;;;5030035;28;20733;-68
2022/04/21 02:32:15;;;;;;;3.77;2.80;;;;;7.90;100814.00;;;;5027679;28;20234;-68
2022/04/21 02:35:02;;;;;;;3.27;2.50;;;;;7.90;100815.00;;;;5030132;28;20241;-68
2022/04/21 02:37:48;;;;;;;3.97;2.80;;;;;7.80;100815.00;;;;5027356;28;20236;-66
2022/04/21 02:40:35;;;;;;;3.47;2.73;;;;;7.90;100812.00;;;;5027753;28;20400;-70
2022/04/21 02:43:21;;;;;;;3.93;2.87;;;;;7.80;100814.00;;;;5043158;28;20232;-68
2022/04/21 02:46:09;;;;;;;5.00;2.97;;;;;7.80;100801.00;;;;5036837;28;20225;-70
2022/04/21 02:48:56;;;;;;;4.60;2.83;;;;;7.60;100807.00;;;;5019095;28;20245;-70
2022/04/21 02:51:42;;;;;;;4.63;2.87;;;;;7.50;100799.00;;;;5031675;28;20225;-70
2022/04/21 02:57:33;;;;;;;3.70;2.70;;;;;7.40;100805.00;;;;5026918;28;20233;-67
2022/04/21 03:00:19;;;;;;;4.53;2.80;;;;;7.30;100799.00;;;;5026491;28;20295;-69
2022/04/21 03:03:07;;;;;;;4.30;2.67;;;;;7.30;100807.00;;;;5030617;28;20252;-68
2022/04/21 03:05:53;;;;;;;3.40;2.60;;;;;7.30;100804.00;;;;5047098;28;20228;-69
2022/04/21 03:08:42;;;;;;;4.10;2.70;;;;;7.30;100801.00;;;;5046990;28;20248;-69
2022/04/21 03:11:29;;;;;;;4.50;2.70;;;;;7.40;100809.00;;;;5047327;28;20847;-70
2022/04/21 03:14:18;;;;;;;5.30;2.90;;;;;7.30;100801.00;;;;5027467;28;20311;-68
2022/04/21 03:17:04;;;;;;;4.33;2.80;;;;;7.20;100804.00;;;;5026935;28;20236;-68
2022/04/21 03:19:52;;;;;;;5.03;3.20;;;;;7.20;100806.00;;;;5027406;28;20307;-70
2022/04/21 03:25:42;;;;;;;4.97;2.90;;;;;7.10;100804.00;;;;5029147;28;20247;-69
2022/04/21 03:28:28;;;;;;;3.60;2.67;;;;;7.10;100803.00;;;;5026871;28;20308;-68
2022/04/21 03:31:15;;;;;;;4.13;2.33;;;;;7.10;100801.00;;;;5027058;28;21027;-69
2022/04/21 03:34:02;;;;;;;4.87;2.80;;;;;7.20;100798.00;;;;5027096;28;20642;-70
2022/04/21 03:36:50;;;;;;;4.13;2.93;;;;;7.20;100804.00;;;;5028580;28;20363;-69
2022/04/21 03:39:39;;;;;;;3.20;2.50;;;;;7.10;100812.00;;;;5039517;28;20240;-69
2022/04/21 03:42:27;;;;;;;3.60;2.33;;;;;7.10;100808.00;;;;5043715;28;20288;-69
2022/04/21 03:45:13;;;;;;;7.30;3.23;;;;;7.20;100802.00;;;;5015940;28;20250;-68
2022/04/21 03:48:01;;;;;;;5.97;2.67;;;;;7.30;100803.00;;;;5045066;28;20233;-68
2022/04/21 03:50:47;;;;;;;4.30;2.40;;;;;7.30;100797.00;;;;5035554;28;20360;-68
2022/04/21 03:53:35;;;;;;;4.83;2.90;;;;;7.40;100771.00;;;;5008977;28;20237;-67
2022/04/21 03:56:21;;;;;;;3.97;2.73;;;;;7.50;100797.00;;;;5008175;28;20236;-68
2022/04/21 03:59:09;;;;;;;4.23;2.93;;;;;7.80;100797.00;;;;5036425;28;20232;-69
2022/04/21 04:02:02;;;;;;;5.03;2.87;;;;;7.90;100797.00;;;;5045267;28;20276;-69
2022/04/21 04:04:48;;;;;;;3.47;2.90;;;;;7.80;100809.00;;;;5041438;28;20229;-69
2022/04/21 04:10:52;;;;;;;4.63;3.10;;;;;7.90;100794.00;;;;5017153;28;20229;-69
2022/04/21 04:13:38;;;;;;;5.53;3.00;;;;;7.90;100797.00;;;;5026322;28;20698;-71
2022/04/21 04:16:24;;;;;;;5.47;2.67;;;;;7.90;100797.00;;;;5025526;28;20319;-70
2022/04/21 04:19:11;;;;;;;7.27;3.37;;;;;8.00;100793.00;;;;5033155;28;20240;-69
2022/04/21 04:21:57;;;;;;;5.00;2.70;;;;;8.00;100797.00;;;;5025656;28;20276;-70
2022/04/21 04:24:44;;;;;;;4.70;3.13;;;;;7.90;100801.00;;;;5026111;28;20225;-70
2022/04/21 04:27:32;;;;;;;3.87;2.90;;;;;7.80;100796.00;;;;5021595;28;20228;-70
2022/04/21 04:30:19;;;;;;;5.73;2.87;;;;;7.80;100796.00;;;;5032046;28;20752;-70
2022/04/21 04:33:05;;;;;;;4.37;3.33;;;;;7.80;100797.00;;;;5025849;28;20225;-68
2022/04/21 04:35:51;;;;;;;3.73;3.03;;;;;7.70;100795.00;;;;5025362;28;20240;-69
2022/04/21 04:38:38;;;;;;;3.40;3.03;;;;;7.60;100777.00;;;;5041648;28;20235;-69
2022/04/21 04:44:38;;;;;;;3.57;2.63;;;;;7.50;100810.00;;;;5016126;28;20303;-68
2022/04/21 04:47:23;;;;;;;3.53;2.47;;;;;7.40;100814.00;;;;5033859;28;20230;-69
2022/04/21 04:50:10;;;;;;;3.60;2.63;;;;;7.40;100812.00;;;;5033552;28;20233;-68
2022/04/21 04:52:58;;;;;;;4.53;3.00;;;;;7.50;100817.00;;;;5036192;28;20363;-70
2022/04/21 04:55:44;;;;;;;4.73;3.07;;;;;7.50;100815.00;;;;5042306;28;20236;-67
2022/04/21 04:58:30;;;;;;;5.70;2.80;;;;;7.50;100820.00;;;;5026791;28;20240;-70
2022/04/21 05:01:26;;;;;;;4.77;3.03;;;;;7.40;100820.00;;;;5027856;28;20245;-69
2022/04/21 05:04:14;;;;;;;4.23;2.90;;;;;7.40;100819.00;;;;5025463;28;20230;-69
2022/04/21 05:07:00;;;;;;;6.03;3.00;;;;;7.60;100822.00;;;;5014675;28;20228;-68
2022/04/21 05:09:46;;;;;;;4.27;3.40;;;;;7.50;100831.00;;;;5024798;28;20733;-68
2022/04/21 05:12:32;;;;;;;4.57;3.30;;;;;7.60;100829.00;;;;5042883;28;20233;-68
2022/04/21 05:15:19;;;;;;;4.77;3.20;;;;;7.60;100831.00;;;;5027639;28;20241;-68
2022/04/21 05:18:07;;;;;;;4.43;3.23;;;;;7.70;100825.00;;;;5039981;28;20231;-70
2022/04/21 05:20:54;;;;;;;5.37;3.10;;;;;7.90;100827.00;;;;5037331;28;20295;-66
2022/04/21 05:23:41;;;;;;;4.20;2.83;;;;;8.00;100816.00;;;;5044687;28;20252;-69
2022/04/21 05:26:28;;;;;;;5.20;3.23;;;;;8.10;100820.00;;;;5039041;28;20229;-67
2022/04/21 05:32:27;;;;;;;5.93;3.30;;;;;8.30;100807.00;;;;5025387;28;20634;-68
2022/04/21 05:35:16;;;;;;;5.67;3.47;;;;;8.40;100807.00;;;;5025743;28;20370;-68
2022/04/21 05:38:03;;;;;;;7.07;3.20;;;;;8.40;100805.00;;;;5044618;28;20621;-67
2022/04/21 05:40:50;;;;;;;5.53;3.43;;;;;8.60;100796.00;;;;5041570;28;20256;-69
2022/04/21 05:43:42;;;;;;;5.53;3.57;;;;;8.70;100803.00;;;;5049027;28;20245;-68
2022/04/21 05:46:29;;;;;;;4.57;3.47;;;;;8.70;100803.00;;;;5029982;28;20241;-69
2022/04/21 05:49:17;;;;;;;5.50;3.40;;;;;8.80;100800.00;;;;5038584;28;20241;-68
2022/04/21 05:52:08;;;;;;;5.87;3.43;;;;;8.90;100804.00;;;;5036559;28;20313;-68
2022/04/21 05:54:54;;;;;;;4.57;3.30;;;;;8.90;100794.00;;;;5034849;28;20622;-67
2022/04/21 05:57:41;;;;;;;5.90;3.80;;;;;8.90;100796.00;;;;5040852;28;20262;-68
2022/04/21 06:00:27;;;;;;;4.37;3.10;;;;;9.10;100797.00;;;;5027379;28;20368;-67
2022/04/21 06:03:13;;;;;;;4.40;3.03;;;;;9.10;100781.00;;;;5029918;28;20254;-67
2022/04/21 06:06:00;;;;;;;4.90;3.50;;;;;9.10;100793.00;;;;5026974;28;20238;-68
2022/04/21 06:08:48;;;;;;;5.17;3.70;;;;;9.20;100788.00;;;;5028048;28;20638;-66
2022/04/21 06:11:35;;;;;;;5.50;3.30;;;;;9.30;100789.00;;;;5037731;28;20251;-68
2022/04/21 06:14:21;;;;;;;5.63;3.40;;;;;9.40;100791.00;;;;5036039;28;20245;-71
2022/04/21 06:17:07;;;;;;;3.50;3.07;;;;;9.50;100791.00;;;;5023956;28;20237;-69
2022/04/21 06:19:55;;;;;;;4.20;3.30;;;;;9.50;100790.00;;;;5034364;28;20697;-68
2022/04/21 06:22:41;;;;;;;8.87;3.80;;;;;9.80;100792.00;;;;5043242;28;20245;-69
2022/04/21 06:25:29;;;;;;;7.53;3.10;;;;;9.80;100789.00;;;;5024547;28;20242;-68
2022/04/21 06:28:15;;;;;;;5.40;3.77;;;;;9.80;100786.00;;;;5029173;28;20239;-68
2022/04/21 06:31:02;;;;;;;4.50;3.17;;;;;9.80;100790.00;;;;5034344;28;20239;-67
2022/04/21 06:33:48;;;;;;;5.67;3.33;;;;;10.10;100788.00;;;;5024602;28;20347;-69
2022/04/21 06:36:34;;;;;;;4.37;3.30;;;;;10.20;100792.00;;;;5027509;28;20236;-67
2022/04/21 06:39:20;;;;;;;11.30;3.20;;;;;10.30;100792.00;;;;5035060;28;20266;-68
2022/04/21 06:42:08;;;;;;;4.53;3.43;;;;;10.30;100787.00;;;;5028979;28;20224;-70
2022/04/21 06:48:05;;;;;;;3.87;2.80;;;;;10.30;100775.00;;;;5026927;28;20384;-68
2022/04/21 06:50:52;;;;;;;5.13;3.07;;;;;10.40;100782.00;;;;5028182;28;20254;-67
2022/04/21 06:53:39;;;;;;;4.53;3.40;;;;;10.50;100778.00;;;;5044293;28;20601;-68
2022/04/21 06:56:26;;;;;;;3.73;2.77;;;;;10.60;100783.00;;;;5037022;28;20300;-67
2022/04/21 06:59:14;;;;;;;4.37;3.23;;;;;10.60;100780.00;;;;5041863;28;20225;-68
2022/04/21 07:02:00;;;;;;;4.10;2.90;;;;;10.70;100789.00;;;;5043478;28;20395;-68
2022/04/21 07:04:47;;;;;;;4.97;2.70;;;;;10.80;100779.00;;;;5044388;28;20283;-68
2022/04/21 07:07:33;;;;;;;4.77;3.10;;;;;10.90;100794.00;;;;5044539;28;20241;-66
2022/04/21 07:10:21;;;;;;;3.60;2.77;;;;;11.10;100789.00;;;;5031720;28;20735;-67
2022/04/21 07:13:11;;;;;;;3.73;2.80;;;;;11.10;100788.00;;;;5020531;28;20331;-67
2022/04/21 07:15:58;;;;;;;3.33;2.47;;;;;11.20;100792.00;;;;5045108;28;20248;-68
2022/04/21 07:18:45;;;;;;;3.77;2.73;;;;;11.10;100795.00;;;;5031004;28;20313;-68
2022/04/21 07:21:31;;;;;;;4.47;2.57;;;;;11.20;100783.00;;;;5038080;28;20246;-67
2022/04/21 07:24:18;;;;;;;3.47;2.60;;;;;11.40;100797.00;;;;5031073;28;20222;-66
2022/04/21 07:27:04;;;;;;;2.73;2.40;;;;;11.50;100799.00;;;;5040668;28;20220;-69
2022/04/21 07:29:51;;;;;;;3.93;3.00;;;;;11.60;100798.00;;;;5052595;28;20302;-69
2022/04/21 07:32:38;;;;;;;6.07;2.73;;;;;11.60;100798.00;;;;5048301;28;20725;-68
2022/04/21 07:35:26;;;;;;;4.23;3.00;;;;;11.60;100790.00;;;;5054157;28;20253;-67
2022/04/21 07:38:18;;;;;;;4.33;2.93;;;;;11.80;100797.00;;;;5050917;28;20342;-68
2022/04/21 07:41:04;;;;;;;2.87;2.63;;;;;11.70;100801.00;;;;5050237;28;20223;-67
2022/04/21 07:43:51;;;;;;;3.83;2.70;;;;;11.90;100805.00;;;;5041014;28;20315;-69
2022/04/21 07:46:37;;;;;;;4.17;3.00;;;;;12.10;100800.00;;;;5045753;28;20244;-67
2022/04/21 07:55:34;;;;;;;4.07;2.67;;;;;12.40;100799.00;;;;5045531;28;20827;-68
2022/04/21 07:58:21;;;;;;;3.17;2.30;;;;;12.50;100805.00;;;;5026326;28;20237;-68
2022/04/21 08:01:08;;;;;;;3.27;2.37;;;;;12.80;100801.00;;;;5039231;28;20233;-68
2022/04/21 08:03:54;;;;;;;3.23;2.67;;;;;12.90;100803.00;;;;5026375;28;20233;-67
2022/04/21 08:06:41;;;;;;;3.87;3.00;;;;;12.90;100810.00;;;;5026091;28;20233;-68
2022/04/21 08:09:28;;;;;;;7.87;2.73;;;;;13.00;100809.00;;;;5026066;28;20252;-67
2022/04/21 08:12:14;;;;;;;5.33;2.80;;;;;12.90;100805.00;;;;5026621;28;20303;-68
2022/04/21 08:15:00;;;;;;;3.37;2.63;;;;;13.00;100801.00;;;;5025837;28;20303;-67
2022/04/21 08:17:46;;;;;;;3.73;2.80;;;;;13.10;100808.00;;;;5028063;28;20241;-66
2022/04/21 08:20:34;;;;;;;3.37;2.50;;;;;13.10;100812.00;;;;5032668;28;20283;-68
2022/04/21 08:23:22;;;;;;;4.00;2.80;;;;;13.10;100811.00;;;;5026303;28;20815;-67
2022/04/21 08:32:36;;;;;;;3.50;2.73;;;;;13.60;100803.00;;;;5045729;28;20228;-68
2022/04/21 08:35:23;;;;;;;3.90;2.80;;;;;13.70;100816.00;;;;5044968;28;20302;-70
2022/04/21 08:38:09;;;;;;;3.03;2.47;;;;;13.90;100804.00;;;;5043217;28;20240;-70
2022/04/21 08:40:58;;;;;;;3.30;2.60;;;;;14.10;100797.00;;;;5033747;28;20969;-70
2022/04/21 08:43:47;;;;;;;6.53;3.07;;;;;14.20;100810.00;;;;5025771;28;20604;-67
2022/04/21 08:46:34;;;;;;;3.00;2.53;;;;;14.30;100807.00;;;;5033490;28;20937;-70
2022/04/21 08:49:21;;;;;;;5.63;2.63;;;;;14.50;100804.00;;;;5029488;28;20245;-68
2022/04/21 08:52:08;;;;;;;4.27;3.03;;;;;14.60;100806.00;;;;5041552;28;20847;-69
2022/04/21 08:54:55;;;;;;;3.53;2.20;;;;;14.60;100799.00;;;;5045699;28;20363;-69
2022/04/21 08:57:42;;;;;;;3.63;2.50;;;;;14.70;100792.00;;;;5045036;28;20233;-69
2022/04/21 09:00:31;;;;;;;5.33;2.60;;;;;14.60;100788.00;;;;5040306;28;20233;-68
2022/04/21 09:03:17;;;;;;;4.77;2.30;;;;;14.80;100797.00;;;;5045232;28;20237;-70
2022/04/21 09:06:03;;;;;;;3.27;2.20;;;;;14.90;100783.00;;;;5041723;28;20239;-68
2022/04/21 09:09:13;;;;;;;4.30;2.33;;;;;15.10;100779.00;;;;5047011;28;20601;-70
2022/04/21 09:12:00;;;;;;;2.43;2.10;;;;;15.30;100778.00;;;;5046625;28;20347;-69
2022/04/21 09:14:48;;;;;;;3.53;2.63;;;;;15.10;100786.00;;;;5049913;28;20705;-68
2022/04/21 09:17:43;;;;;;;6.53;2.60;;;;;15.10;100782.00;;;;5022598;28;20258;-68
2022/04/21 09:20:33;;;;;;;6.10;2.50;;;;;14.90;100768.00;;;;5009535;28;20232;-67
2022/04/21 09:23:19;;;;;;;4.57;2.50;;;;;15.00;100783.00;;;;5026519;28;20369;-68
2022/04/21 09:26:10;;;;;;;4.73;2.67;;;;;14.90;100788.00;;;;5044553;28;20232;-68
2022/04/21 09:29:04;;;;;;;2.83;2.30;;;;;14.70;100783.00;;;;5024497;28;20383;-67
2022/04/21 09:31:57;;;;;;;5.57;2.60;;;;;14.50;100773.00;;;;5026710;28;20231;-66
2022/04/21 09:34:51;;;;;;;2.73;2.23;;;;;14.40;100792.00;;;;5030460;28;20283;-68
2022/04/21 09:37:45;;;;;;;4.93;2.93;;;;;14.40;100784.00;;;;5024379;28;20311;-69
2022/04/21 09:40:32;;;;;;;3.40;2.73;;;;;14.70;100763.00;;;;5032251;28;20306;-68
2022/04/21 09:43:29;;;;;;;4.27;3.10;;;;;14.90;100779.00;;;;5030539;28;20715;-67
2022/04/21 09:46:16;;;;;;;3.80;2.90;;;;;15.00;100780.00;;;;5027528;28;20230;-65
2022/04/21 09:49:04;;;;;;;4.10;2.90;;;;;14.90;100781.00;;;;5043954;28;20234;-66
2022/04/21 09:51:50;;;;;;;3.90;3.27;;;;;15.10;100778.00;;;;5044706;28;20265;-68
2022/04/21 09:54:39;;;;;;;7.93;3.03;;;;;15.40;100785.00;;;;5047559;28;20220;-70
2022/04/21 09:57:32;;;;;;;5.33;2.80;;;;;15.50;100791.00;;;;5044928;28;20236;-67
2022/04/21 10:00:21;;;;;;;4.30;3.30;;;;;15.60;100781.00;;;;5045528;28;20327;-66
2022/04/21 10:03:08;;;;;;;6.67;3.60;;;;;15.60;100777.00;;;;5038824;28;20303;-66
2022/04/21 10:05:56;;;;;;;4.70;3.30;;;;;15.70;100786.00;;;;5050685;28;20609;-69
2022/04/21 10:08:43;;;;;;;4.40;3.00;;;;;15.60;100782.00;;;;5046149;28;20223;-67
2022/04/21 10:11:31;;;;;;;4.73;3.30;;;;;15.80;100782.00;;;;5028721;28;20281;-68
2022/04/21 10:14:17;;;;;;;3.77;3.17;;;;;15.90;100783.00;;;;5034428;28;20223;-69
2022/04/21 10:17:09;;;;;;;6.00;2.73;;;;;16.00;100769.00;;;;5039519;28;20265;-68
2022/04/21 10:19:55;;;;;;;2.93;2.47;;;;;15.70;100762.00;;;;5028765;28;20296;-68
2022/04/21 10:22:47;;;;;;;4.90;3.17;;;;;15.60;100755.00;;;;5032114;28;20247;-68
2022/04/21 10:25:38;;;;;;;4.17;3.20;;;;;15.80;100753.00;;;;5041447;28;20271;-70
2022/04/21 10:28:39;;;;;;;3.20;2.87;;;;;15.80;100748.00;;;;5036430;28;20295;-69
2022/04/21 10:31:29;;;;;;;5.27;2.97;;;;;15.60;100746.00;;;;5035602;28;20698;-69
2022/04/21 10:34:31;;;;;;;3.27;2.60;;;;;15.60;100744.00;;;;5039767;28;20230;-70
2022/04/21 10:37:20;;;;;;;4.03;2.70;;;;;15.80;100739.00;;;;5048144;28;20323;-70
2022/04/21 10:40:10;;;;;;;3.00;2.57;;;;;15.90;100735.00;;;;5047804;28;20323;-68
2022/04/21 10:42:59;;;;;;;3.00;2.40;;;;;16.10;100723.00;;;;5041820;28;20338;-70
2022/04/21 10:46:03;;;;;;;4.47;2.53;;;;;16.10;100715.00;;;;5054370;28;20230;-68
2022/04/21 10:48:50;;;;;;;3.70;2.40;;;;;16.40;100723.00;;;;5050112;28;20280;-68
2022/04/21 10:58:54;;;;;;;2.93;2.20;;;;;16.70;100704.00;;;;5027893;28;20236;-71
2022/04/21 11:01:53;;;;;;;2.53;2.13;;;;;16.50;100712.00;;;;5031455;28;20235;-68
2022/04/21 11:04:40;;;;;;;5.73;2.57;;;;;16.70;100712.00;;;;5047957;28;20233;-69
2022/04/21 11:07:53;;;;;;;5.80;2.10;;;;;16.50;100715.00;;;;5028221;28;20380;-69
2022/04/21 11:10:43;;;;;;;3.83;2.13;;;;;16.60;100720.00;;;;5027533;28;20242;-68
2022/04/21 11:13:50;;;;;;;2.73;2.10;;;;;16.90;100715.00;;;;5030164;28;20296;-66
2022/04/21 11:16:48;;;;;;;3.10;2.37;;;;;16.50;100717.00;;;;5029685;28;20753;-68
2022/04/21 11:19:41;;;;;;;2.97;2.40;;;;;16.40;100717.00;;;;5029831;28;20292;-68
2022/04/21 11:22:39;;;;;;;2.80;2.50;;;;;16.60;100698.00;;;;5038674;28;20228;-69
2022/04/21 11:25:26;;;;;;;4.87;2.67;;;;;16.70;100708.00;;;;5032774;28;20396;-67
2022/04/21 11:28:14;;;;;;;9.23;2.53;;;;;16.40;100679.00;;;;5048474;28;20303;-68
2022/04/21 11:31:02;;;;;;;3.37;2.10;;;;;16.30;100696.00;;;;5027588;28;20239;-67
2022/04/21 11:33:48;;;;;;;2.73;2.47;;;;;16.40;100691.00;;;;5044261;28;20239;-65
2022/04/21 11:36:36;;;;;;;4.27;2.40;;;;;16.60;100693.00;;;;5032130;28;20843;-69
2022/04/21 11:39:23;;;;;;;5.23;2.60;;;;;16.60;100697.00;;;;5042686;28;20391;-69
2022/04/21 11:42:09;;;;;;;5.37;2.70;;;;;16.80;100687.00;;;;5044651;28;20289;-70
2022/04/21 11:44:57;;;;;;;3.40;2.40;;;;;17.50;100688.00;;;;5051795;28;20244;-69
2022/04/21 11:47:43;;;;;;;3.80;2.73;;;;;17.90;100691.00;;;;5051804;28;20225;-69
2022/04/21 11:50:31;;;;;;;4.27;2.73;;;;;18.20;100699.00;;;;5046568;28;20884;-69
2022/04/21 11:53:20;;;;;;;2.77;2.30;;;;;18.00;100697.00;;;;5042363;28;20228;-69
2022/04/21 11:56:08;;;;;;;4.00;2.67;;;;;18.10;100692.00;;;;5046433;28;20299;-70
2022/04/21 11:58:54;;;;;;;4.37;2.50;;;;;18.00;100687.00;;;;5049937;28;20237;-69
2022/04/21 12:07:50;;;;;;;3.10;2.40;;;;;18.20;100693.00;;;;5027234;28;20235;-68
2022/04/21 12:10:36;;;;;;;3.30;2.30;;;;;18.30;100694.00;;;;5034457;28;20229;-68
2022/04/21 12:13:24;;;;;;;3.03;2.30;;;;;18.20;100687.00;;;;5045278;28;20303;-68
2022/04/21 12:16:36;;;;;;;3.37;2.07;;;;;18.10;100689.00;;;;5013817;28;20300;-66
2022/04/21 12:19:33;;;;;;;4.50;2.97;;;;;18.00;100689.00;;;;5027761;28;20285;-67
2022/04/21 12:22:20;;;;;;;5.33;2.80;;;;;18.20;100690.00;;;;5029905;28;20716;-67
2022/04/21 12:25:12;;;;;;;3.07;2.70;;;;;18.50;100669.00;;;;5032100;28;20261;-67
2022/04/21 12:28:02;;;;;;;4.87;2.53;;;;;18.70;100683.00;;;;5014318;28;20672;-67
2022/04/21 12:30:49;;;;;;;2.60;2.23;;;;;18.60;100672.00;;;;5026180;28;20229;-68
2022/04/21 12:33:42;;;;;;;3.00;2.27;;;;;18.70;100666.00;;;;5026145;28;20228;-67
2022/04/21 12:36:30;;;;;;;2.63;2.17;;;;;19.10;100674.00;;;;5045456;28;20752;-66
2022/04/21 12:39:16;;;;;;;4.27;2.60;;;;;19.50;100674.00;;;;5043905;28;20299;-67
2022/04/21 12:42:22;;;;;;;4.37;2.30;;;;;19.40;100668.00;;;;5028910;28;20237;-67
2022/04/21 12:45:11;;;;;;;3.43;2.80;;;;;19.40;100665.00;;;;5038720;28;20224;-67
2022/04/21 12:47:58;;;;;;;3.43;2.77;;;;;19.60;100666.00;;;;5044337;28;20283;-66
2022/04/21 12:50:44;;;;;;;4.57;2.50;;;;;20.10;100660.00;;;;5044904;28;20237;-67
2022/04/21 12:53:34;;;;;;;3.43;2.70;;;;;20.10;100660.00;;;;5040965;28;20356;-68
2022/04/21 12:56:20;;;;;;;4.07;2.77;;;;;19.50;100662.00;;;;5043191;28;20236;-66
2022/04/21 12:59:06;;;;;;;3.50;2.40;;;;;19.30;100651.00;;;;5040495;28;20229;-68
2022/04/21 13:01:53;;;;;;;3.33;2.77;;;;;19.20;100659.00;;;;5045359;28;20228;-70
2022/04/21 13:04:39;;;;;;;3.27;2.77;;;;;19.10;100646.00;;;;5047062;28;20224;-70
2022/04/21 13:07:25;;;;;;;6.40;2.77;;;;;18.70;100643.00;;;;5037243;28;20348;-68
2022/04/21 13:10:13;;;;;;;3.63;2.83;;;;;19.10;100634.00;;;;5035571;28;20229;-70
2022/04/21 13:12:59;;;;;;;3.13;2.50;;;;;19.20;100655.00;;;;5036804;28;20232;-72
2022/04/21 13:15:45;;;;;;;3.47;2.60;;;;;19.20;100647.00;;;;5030692;28;21037;-70
2022/04/21 13:18:31;;;;;;;4.03;2.60;;;;;19.20;100636.00;;;;5029066;28;20242;-70
2022/04/21 13:24:22;;;;;;;4.20;3.10;;;;;19.60;100640.00;;;;5039285;28;20295;-70
2022/04/21 13:27:10;;;;;;;4.40;2.80;;;;;19.60;100644.00;;;;5050211;28;20233;-67
2022/04/21 13:29:56;;;;;;;5.17;3.27;;;;;19.30;100636.00;;;;5034435;28;20306;-66
2022/04/21 13:35:47;;;;;;;3.80;3.03;;;;;19.80;100634.00;;;;5020919;28;20721;-70
2022/04/21 13:38:33;;;;;;;7.37;3.33;;;;;19.80;100626.00;;;;5023521;28;20237;-70
2022/04/21 13:41:20;;;;;;;4.47;3.50;;;;;20.30;100633.00;;;;5040382;28;20261;-69
2022/04/21 13:44:08;;;;;;;7.00;3.37;;;;;20.60;100631.00;;;;5030678;28;20237;-70
2022/04/21 13:47:15;;;;;;;4.90;3.00;;;;;20.50;100635.00;;;;5030233;28;20842;-66
2022/04/21 13:50:01;;;;;;;6.57;3.43;;;;;20.00;100640.00;;;;5052179;28;20235;-67
2022/04/21 13:52:47;;;;;;;6.97;3.40;;;;;19.60;100626.00;;;;5043474;28;20594;-66
2022/04/21 13:55:34;;;;;;;3.80;2.90;;;;;20.10;100626.00;;;;5029423;28;20737;-67
2022/04/21 13:58:20;;;;;;;5.47;3.90;;;;;20.20;100621.00;;;;5028755;28;20250;-68
2022/04/21 14:01:07;;;;;;;5.50;3.70;;;;;19.90;100604.00;;;;5035134;28;20248;-68
2022/04/21 14:03:53;;;;;;;5.43;3.50;;;;;19.90;100621.00;;;;5045925;28;20240;-69
2022/04/21 14:06:40;;;;;;;5.80;3.70;;;;;20.10;100617.00;;;;5047233;28;20228;-69
2022/04/21 14:09:26;;;;;;;6.33;4.00;;;;;20.40;100604.00;;;;5047762;28;20388;-67
2022/04/21 14:12:12;;;;;;;5.53;3.73;;;;;20.80;100607.00;;;;5053150;28;20233;-70
2022/04/21 14:14:58;;;;;;;5.93;3.40;;;;;19.90;100606.00;;;;5049991;28;20351;-68
2022/04/21 14:17:46;;;;;;;6.27;4.00;;;;;20.30;100597.00;;;;5046458;28;20228;-66
2022/04/21 14:20:33;;;;;;;4.77;3.57;;;;;20.60;100606.00;;;;5036387;28;20316;-67
2022/04/21 14:23:19;;;;;;;6.23;3.50;;;;;20.50;100592.00;;;;5037028;28;20234;-67
2022/04/21 14:26:08;;;;;;;5.47;3.53;;;;;20.20;100599.00;;;;5051136;28;20229;-70
2022/04/21 14:28:54;;;;;;;5.90;4.20;;;;;20.10;100597.00;;;;5050961;28;20238;-69
2022/04/21 14:31:40;;;;;;;6.53;4.00;;;;;20.00;100580.00;;;;5040958;28;20225;-70
2022/04/21 14:34:29;;;;;;;8.77;4.00;;;;;20.00;100574.00;;;;5041533;28;20382;-70
2022/04/21 14:44:04;;;;;;;7.13;3.93;;;;;20.60;100579.00;;;;5044232;28;20222;-66
2022/04/21 14:46:31;;;;;;;8.13;4.40;;;;;21.90;100575.00;;;;5054248;28;20266;-70
2022/04/21 14:49:39;;;;;;;6.17;4.10;;;;;21.90;100576.00;;;;5042540;28;20626;-68
2022/04/21 14:52:27;;;;;;;5.80;4.53;;;;;22.50;100577.00;;;;5027110;28;20292;-69
2022/04/21 14:55:14;;;;;;;4.50;3.50;;;;;23.20;100562.00;;;;5026559;28;20253;-69
2022/04/21 14:58:00;;;;;;;5.03;3.90;;;;;22.90;100569.00;;;;5034876;28;20236;-70